createdAt,value
2019-04-26T00:00:44.648Z,0.00
2019-04-26T00:01:44.572Z,0.00
2019-04-26T00:02:44.488Z,0.00
2019-04-26T00:03:44.411Z,0.00
2019-04-26T00:04:44.330Z,0.00
2019-04-26T00:05:44.248Z,0.00
2019-04-26T00:06:44.174Z,0.00
2019-04-26T00:07:44.086Z,0.00
2019-04-26T00:08:44.012Z,0.00
2019-04-26T00:09:43.937Z,0.00
2019-04-26T00:10:43.848Z,0.00
2019-04-26T00:11:43.786Z,0.00
2019-04-26T00:12:43.687Z,0.00
2019-04-26T00:13:43.612Z,0.00
2019-04-26T00:14:43.537Z,0.00
2019-04-26T00:15:43.449Z,0.00
2019-04-26T00:16:43.418Z,0.00
2019-04-26T00:17:43.299Z,0.00
2019-04-26T00:18:43.213Z,0.00
2019-04-26T00:19:43.137Z,0.00
2019-04-26T00:20:43.064Z,0.00
2019-04-26T00:21:42.974Z,0.00
2019-04-26T00:22:42.900Z,0.00
2019-04-26T00:23:42.813Z,0.00
2019-04-26T00:24:42.740Z,0.00
2019-04-26T00:25:42.650Z,0.00
2019-04-26T00:26:42.575Z,0.00
2019-04-26T00:27:42.502Z,0.00
2019-04-26T00:28:42.423Z,0.00
2019-04-26T00:29:42.339Z,0.00
2019-04-26T00:30:42.254Z,0.00
2019-04-26T00:31:42.178Z,0.00
2019-04-26T00:32:42.102Z,0.00
2019-04-26T00:33:42.014Z,0.00
2019-04-26T00:34:41.940Z,0.00
2019-04-26T00:35:47.789Z,0.00
2019-04-26T00:36:41.777Z,0.00
2019-04-26T00:37:41.701Z,0.00
2019-04-26T00:38:41.615Z,0.00
2019-04-26T00:39:41.545Z,0.00
2019-04-26T00:40:41.454Z,0.00
2019-04-26T00:41:41.380Z,0.00
2019-04-26T00:42:41.302Z,0.00
2019-04-26T00:43:41.214Z,0.00
2019-04-26T00:44:41.140Z,0.00
2019-04-26T00:45:41.065Z,0.00
2019-04-26T00:46:40.977Z,0.00
2019-04-26T00:47:40.902Z,0.00
2019-04-26T00:48:40.815Z,0.00
2019-04-26T00:49:43.896Z,0.00
2019-04-26T00:50:40.666Z,0.00
2019-04-26T00:51:40.579Z,0.00
2019-04-26T00:52:40.597Z,0.00
2019-04-26T00:53:40.417Z,0.00
2019-04-26T00:54:40.341Z,0.00
2019-04-26T00:55:40.255Z,0.00
2019-04-26T00:56:40.181Z,0.00
2019-04-26T00:57:40.103Z,0.00
2019-04-26T00:58:40.016Z,0.00
2019-04-26T00:59:39.946Z,0.00
2019-04-26T01:00:39.870Z,0.00
2019-04-26T01:01:39.792Z,0.00
2019-04-26T01:02:39.705Z,0.00
2019-04-26T01:03:39.621Z,0.00
2019-04-26T01:04:39.559Z,0.00
2019-04-26T01:05:39.467Z,0.00
2019-04-26T01:06:39.380Z,0.00
2019-04-26T01:07:39.304Z,0.00
2019-04-26T01:08:39.217Z,0.00
2019-04-26T01:09:39.201Z,0.00
2019-04-26T01:10:39.067Z,0.00
2019-04-26T01:11:38.981Z,0.00
2019-04-26T01:12:38.908Z,0.00
2019-04-26T01:13:38.819Z,0.00
2019-04-26T01:14:38.743Z,0.00
2019-04-26T01:15:38.656Z,0.00
2019-04-26T01:16:38.580Z,0.00
2019-04-26T01:17:38.506Z,0.00
2019-04-26T01:18:38.419Z,0.00
2019-04-26T01:19:38.344Z,0.00
2019-04-26T01:20:38.263Z,0.00
2019-04-26T01:21:38.181Z,0.00
2019-04-26T01:22:38.106Z,0.00
2019-04-26T01:23:38.020Z,0.00
2019-04-26T01:24:37.946Z,0.00
2019-04-26T01:25:37.869Z,0.00
2019-04-26T01:26:37.781Z,0.00
2019-04-26T01:27:37.706Z,0.00
2019-04-26T01:28:37.631Z,0.00
2019-04-26T01:29:37.548Z,0.00
2019-04-26T01:30:37.470Z,0.00
2019-04-26T01:31:37.387Z,0.00
2019-04-26T01:32:37.307Z,0.00
2019-04-26T01:33:37.223Z,0.00
2019-04-26T01:34:37.146Z,0.00
2019-04-26T01:35:37.057Z,0.00
2019-04-26T01:36:36.982Z,0.00
2019-04-26T01:37:36.908Z,0.00
2019-04-26T01:38:36.821Z,0.00
2019-04-26T01:39:36.746Z,0.00
2019-04-26T01:40:36.659Z,0.00
2019-04-26T01:41:36.584Z,0.00
2019-04-26T01:42:36.497Z,0.00
2019-04-26T01:43:36.422Z,0.00
2019-04-26T01:44:36.355Z,0.00
2019-04-26T01:45:36.258Z,0.00
2019-04-26T01:46:36.184Z,0.00
2019-04-26T01:47:36.097Z,0.00
2019-04-26T01:48:36.022Z,0.00
2019-04-26T01:49:35.947Z,0.00
2019-04-26T01:50:35.859Z,0.00
2019-04-26T01:51:35.785Z,0.00
2019-04-26T01:52:35.700Z,0.00
2019-04-26T01:53:35.624Z,0.00
2019-04-26T01:54:35.536Z,0.00
2019-04-26T01:55:35.459Z,0.00
2019-04-26T01:56:35.386Z,0.00
2019-04-26T01:57:35.298Z,0.00
2019-04-26T01:58:35.223Z,0.00
2019-04-26T01:59:35.147Z,0.00
2019-04-26T02:00:35.061Z,0.00
2019-04-26T02:01:34.985Z,0.00
2019-04-26T02:02:34.910Z,0.00
2019-04-26T02:03:34.823Z,0.00
2019-04-26T02:04:34.736Z,0.00
2019-04-26T02:05:34.662Z,0.00
2019-04-26T02:06:35.312Z,0.00
2019-04-26T02:07:34.499Z,0.00
2019-04-26T02:08:34.424Z,0.00
2019-04-26T02:09:34.337Z,0.00
2019-04-26T02:10:34.261Z,0.00
2019-04-26T02:11:34.175Z,0.00
2019-04-26T02:12:34.099Z,0.00
2019-04-26T02:13:34.012Z,0.00
2019-04-26T02:14:33.937Z,0.00
2019-04-26T02:15:33.862Z,0.00
2019-04-26T02:16:33.777Z,0.00
2019-04-26T02:17:33.700Z,0.00
2019-04-26T02:18:33.658Z,0.00
2019-04-26T02:19:33.727Z,0.00
2019-04-26T02:20:33.936Z,0.00
2019-04-26T02:21:34.197Z,0.00
2019-04-26T02:22:34.100Z,0.00
2019-04-26T02:23:34.285Z,0.00
2019-04-26T02:24:33.139Z,0.00
2019-04-26T02:25:33.052Z,0.00
2019-04-26T02:26:33.000Z,0.00
2019-04-26T02:27:32.901Z,0.00
2019-04-26T02:28:32.813Z,0.00
2019-04-26T02:29:32.789Z,0.00
2019-04-26T02:30:33.302Z,0.00
2019-04-26T02:31:33.766Z,0.00
2019-04-26T02:32:33.328Z,0.00
2019-04-26T02:33:33.701Z,0.00
2019-04-26T02:34:33.831Z,0.00
2019-04-26T02:35:33.951Z,0.00
2019-04-26T02:36:48.003Z,0.00
2019-04-26T02:37:32.773Z,0.00
2019-04-26T02:38:33.412Z,0.00
2019-04-26T02:39:33.399Z,0.00
2019-04-26T02:40:33.053Z,0.00
2019-04-26T02:41:33.477Z,0.00
2019-04-26T02:42:33.946Z,0.00
2019-04-26T02:43:32.063Z,0.00
2019-04-26T02:44:32.979Z,0.00
2019-04-26T02:45:32.733Z,0.00
2019-04-26T02:46:32.482Z,0.00
2019-04-26T02:47:32.780Z,0.00
2019-04-26T02:48:32.664Z,0.00
2019-04-26T02:49:32.608Z,0.00
2019-04-26T02:50:32.729Z,0.00
2019-04-26T02:51:32.512Z,0.00
2019-04-26T02:52:31.989Z,0.00
2019-04-26T02:53:31.654Z,0.00
2019-04-26T02:54:31.582Z,0.00
2019-04-26T02:55:31.554Z,0.00
2019-04-26T02:56:31.735Z,0.00
2019-04-26T02:57:31.499Z,0.00
2019-04-26T02:58:31.928Z,0.00
2019-04-26T02:59:31.751Z,0.00
2019-04-26T03:00:31.614Z,0.00
2019-04-26T03:01:31.820Z,0.00
2019-04-26T03:02:32.293Z,0.00
2019-04-26T03:03:31.640Z,0.00
2019-04-26T03:04:30.959Z,0.00
2019-04-26T03:05:31.666Z,0.00
2019-04-26T03:06:30.733Z,0.00
2019-04-26T03:07:30.036Z,0.00
2019-04-26T03:08:29.866Z,0.00
2019-04-26T03:09:31.260Z,0.00
2019-04-26T03:10:31.801Z,0.00
2019-04-26T03:11:31.450Z,0.00
2019-04-26T03:12:30.892Z,0.00
2019-04-26T03:13:30.763Z,0.00
2019-04-26T03:14:29.119Z,0.00
2019-04-26T03:15:30.343Z,4.00
2019-04-26T03:16:28.959Z,4.00
2019-04-26T03:17:30.475Z,0.00
2019-04-26T03:18:28.797Z,4.00
2019-04-26T03:19:28.709Z,4.00
2019-04-26T03:20:28.633Z,4.00
2019-04-26T03:21:28.560Z,4.00
2019-04-26T03:22:28.469Z,4.00
2019-04-26T03:23:41.360Z,4.00
2019-04-26T03:24:28.317Z,8.00
2019-04-26T03:25:28.233Z,8.00
2019-04-26T03:26:28.144Z,12.00
2019-04-26T03:27:28.070Z,12.00
2019-04-26T03:28:27.984Z,12.00
2019-04-26T03:29:27.915Z,16.00
2019-04-26T03:30:27.834Z,16.00
2019-04-26T03:31:27.751Z,20.00
2019-04-26T03:32:27.680Z,20.00
2019-04-26T03:33:27.778Z,28.00
2019-04-26T03:34:27.510Z,28.00
2019-04-26T03:35:27.425Z,32.00
2019-04-26T03:36:27.363Z,40.00
2019-04-26T03:37:27.266Z,40.00
2019-04-26T03:38:27.198Z,48.00
2019-04-26T03:39:27.097Z,52.00
2019-04-26T03:40:27.079Z,60.00
2019-04-26T03:41:26.935Z,64.00
2019-04-26T03:42:26.860Z,76.00
2019-04-26T03:43:26.774Z,76.00
2019-04-26T03:44:26.696Z,88.00
2019-04-26T03:45:26.622Z,92.00
2019-04-26T03:46:26.538Z,100.00
2019-04-26T03:47:26.461Z,108.00
2019-04-26T03:48:26.372Z,116.00
2019-04-26T03:49:26.298Z,124.00
2019-04-26T03:50:26.213Z,136.00
2019-04-26T03:51:26.144Z,148.00
2019-04-26T03:52:26.067Z,160.00
2019-04-26T03:53:25.974Z,176.00
2019-04-26T03:54:25.898Z,192.00
2019-04-26T03:55:25.813Z,208.00
2019-04-26T03:56:25.736Z,232.00
2019-04-26T03:57:25.661Z,260.00
2019-04-26T03:58:25.584Z,296.00
2019-04-26T03:59:25.492Z,348.00
2019-04-26T04:00:25.422Z,404.00
2019-04-26T04:01:25.324Z,460.00
2019-04-26T04:02:25.264Z,516.00
2019-04-26T04:03:27.000Z,564.00
2019-04-26T04:04:25.092Z,584.00
2019-04-26T04:05:25.001Z,592.00
2019-04-26T04:06:24.925Z,588.00
2019-04-26T04:07:36.733Z,568.00
2019-04-26T04:08:24.766Z,544.00
2019-04-26T04:09:24.704Z,520.00
2019-04-26T04:10:24.601Z,508.00
2019-04-26T04:11:24.610Z,504.00
2019-04-26T04:12:24.590Z,504.00
2019-04-26T04:13:24.362Z,508.00
2019-04-26T04:14:24.378Z,520.00
2019-04-26T04:15:24.201Z,536.00
2019-04-26T04:16:24.114Z,552.00
2019-04-26T04:17:24.038Z,576.00
2019-04-26T04:18:23.973Z,600.00
2019-04-26T04:19:23.876Z,624.00
2019-04-26T04:20:23.804Z,648.00
2019-04-26T04:21:23.714Z,668.00
2019-04-26T04:22:23.642Z,684.00
2019-04-26T04:23:23.549Z,712.00
2019-04-26T04:24:23.489Z,752.00
2019-04-26T04:25:23.389Z,804.00
2019-04-26T04:26:23.332Z,856.00
2019-04-26T04:27:23.228Z,864.00
2019-04-26T04:28:23.154Z,868.00
2019-04-26T04:29:38.788Z,928.00
2019-04-26T04:30:23.010Z,1000.00
2019-04-26T04:32:05.027Z,1052.00
2019-04-26T04:33:52.469Z,1096.00
2019-04-26T04:35:29.102Z,1144.00
2019-04-26T04:36:29.026Z,1140.00
2019-04-26T04:37:28.945Z,1136.00
2019-04-26T04:38:28.866Z,1124.00
2019-04-26T04:39:28.781Z,1156.00
2019-04-26T04:40:28.704Z,1228.00
2019-04-26T04:41:28.618Z,1280.00
2019-04-26T04:42:28.545Z,1272.00
2019-04-26T04:43:28.547Z,1284.00
2019-04-26T04:44:28.380Z,1284.00
2019-04-26T04:45:28.290Z,1280.00
2019-04-26T04:46:28.220Z,1268.00
2019-04-26T04:47:31.092Z,1292.00
2019-04-26T04:48:28.054Z,1368.00
2019-04-26T04:49:28.005Z,1360.00
2019-04-26T04:50:27.898Z,1356.00
2019-04-26T04:51:27.823Z,1412.00
2019-04-26T04:52:27.729Z,1528.00
2019-04-26T04:53:27.654Z,1644.00
2019-04-26T04:54:27.570Z,1780.00
2019-04-26T04:55:27.496Z,1884.00
2019-04-26T04:56:27.418Z,1984.00
2019-04-26T04:57:27.330Z,2084.00
2019-04-26T04:58:27.255Z,2164.00
2019-04-26T04:59:27.169Z,2240.00
2019-04-26T05:00:27.096Z,2296.00
2019-04-26T05:01:27.007Z,2348.00
2019-04-26T05:02:26.930Z,2412.00
2019-04-26T05:03:26.867Z,2428.00
2019-04-26T05:04:26.768Z,2448.00
2019-04-26T05:05:26.693Z,2492.00
2019-04-26T05:06:26.605Z,2556.00
2019-04-26T05:07:26.530Z,2624.00
2019-04-26T05:08:26.457Z,2556.00
2019-04-26T05:09:26.369Z,2504.00
2019-04-26T05:10:26.293Z,2520.00
2019-04-26T05:11:26.205Z,2640.00
2019-04-26T05:12:26.161Z,2732.00
2019-04-26T05:13:26.048Z,2876.00
2019-04-26T05:14:25.968Z,3096.00
2019-04-26T05:15:25.897Z,3396.00
2019-04-26T05:16:25.818Z,3524.00
2019-04-26T05:17:25.731Z,3444.00
2019-04-26T05:18:25.649Z,3472.00
2019-04-26T05:19:25.570Z,3396.00
2019-04-26T05:20:25.495Z,3380.00
2019-04-26T05:21:25.420Z,3532.00
2019-04-26T05:22:25.332Z,3412.00
2019-04-26T05:23:25.257Z,3332.00
2019-04-26T05:24:25.180Z,3272.00
2019-04-26T05:25:25.096Z,3164.00
2019-04-26T05:26:25.008Z,3148.00
2019-04-26T05:27:24.932Z,3064.00
2019-04-26T05:28:24.858Z,2744.00
2019-04-26T05:29:24.772Z,2528.00
2019-04-26T05:30:24.695Z,2468.00
2019-04-26T05:31:24.621Z,2420.00
2019-04-26T05:32:24.534Z,2336.00
2019-04-26T05:33:24.458Z,2396.00
2019-04-26T05:34:24.392Z,2448.00
2019-04-26T05:35:24.296Z,2368.00
2019-04-26T05:36:24.234Z,2268.00
2019-04-26T05:37:24.148Z,2308.00
2019-04-26T05:38:24.059Z,2432.00
2019-04-26T05:39:23.984Z,2544.00
2019-04-26T05:40:23.897Z,2628.00
2019-04-26T05:41:23.822Z,2612.00
2019-04-26T05:42:23.747Z,2644.00
2019-04-26T05:43:23.659Z,2668.00
2019-04-26T05:44:23.585Z,2708.00
2019-04-26T05:45:23.509Z,2736.00
2019-04-26T05:46:23.423Z,2748.00
2019-04-26T05:47:23.347Z,2748.00
2019-04-26T05:48:23.260Z,2708.00
2019-04-26T05:49:23.198Z,2656.00
2019-04-26T05:50:23.109Z,2632.00
2019-04-26T05:51:23.040Z,2624.00
2019-04-26T05:52:22.952Z,2604.00
2019-04-26T05:53:22.877Z,2580.00
2019-04-26T05:54:22.800Z,2576.00
2019-04-26T05:55:22.710Z,2580.00
2019-04-26T05:56:22.647Z,2564.00
2019-04-26T05:57:22.549Z,2556.00
2019-04-26T05:58:22.502Z,2524.00
2019-04-26T05:59:22.399Z,2632.00
2019-04-26T06:00:22.311Z,2648.00
2019-04-26T06:01:22.236Z,2592.00
2019-04-26T06:02:22.151Z,2548.00
2019-04-26T06:03:22.075Z,2544.00
2019-04-26T06:04:21.999Z,2576.00
2019-04-26T06:05:21.912Z,2560.00
2019-04-26T06:06:21.837Z,2540.00
2019-04-26T06:07:21.761Z,2512.00
2019-04-26T06:08:31.020Z,2528.00
2019-04-26T06:09:21.650Z,2540.00
2019-04-26T06:10:21.533Z,2560.00
2019-04-26T06:11:21.438Z,2568.00
2019-04-26T06:12:21.362Z,2604.00
2019-04-26T06:13:21.287Z,2632.00
2019-04-26T06:14:21.201Z,2660.00
2019-04-26T06:15:21.129Z,2756.00
2019-04-26T06:16:21.038Z,2812.00
2019-04-26T06:17:20.963Z,2856.00
2019-04-26T06:18:20.888Z,2900.00
2019-04-26T06:19:20.801Z,2992.00
2019-04-26T06:20:22.984Z,3148.00
2019-04-26T06:21:20.654Z,3304.00
2019-04-26T06:22:20.563Z,3528.00
2019-04-26T06:23:20.488Z,4044.00
2019-04-26T06:24:20.413Z,4816.00
2019-04-26T06:25:20.334Z,5332.00
2019-04-26T06:26:20.252Z,5728.00
2019-04-26T06:27:20.177Z,5852.00
2019-04-26T06:28:20.089Z,5796.00
2019-04-26T06:29:20.015Z,5736.00
2019-04-26T06:30:19.939Z,6028.00
2019-04-26T06:31:19.854Z,6456.00
2019-04-26T06:32:19.816Z,6420.00
2019-04-26T06:33:19.702Z,6376.00
2019-04-26T06:34:19.616Z,6304.00
2019-04-26T06:35:20.332Z,5964.00
2019-04-26T06:36:19.465Z,5940.00
2019-04-26T06:37:19.391Z,5716.00
2019-04-26T06:38:19.308Z,5224.00
2019-04-26T06:39:19.234Z,4500.00
2019-04-26T06:40:19.153Z,4388.00
2019-04-26T06:41:21.390Z,4268.00
2019-04-26T06:42:19.026Z,3928.00
2019-04-26T06:43:18.920Z,4388.00
2019-04-26T06:44:18.834Z,5156.00
2019-04-26T06:45:18.753Z,5452.00
2019-04-26T06:46:18.679Z,5576.00
2019-04-26T06:47:18.604Z,5684.00
2019-04-26T06:48:18.516Z,5724.00
2019-04-26T06:49:18.441Z,5936.00
2019-04-26T06:50:18.366Z,5860.00
2019-04-26T06:51:24.570Z,5596.00
2019-04-26T06:52:18.205Z,5384.00
2019-04-26T06:53:18.130Z,5568.00
2019-04-26T06:54:18.054Z,5720.00
2019-04-26T06:55:17.985Z,6064.00
2019-04-26T06:56:17.892Z,6320.00
2019-04-26T06:57:17.818Z,5804.00
2019-04-26T06:58:17.744Z,6504.00
2019-04-26T06:59:17.667Z,6200.00
2019-04-26T07:00:17.593Z,7508.00
2019-04-26T07:01:17.506Z,8016.00
2019-04-26T07:02:17.431Z,7640.00
2019-04-26T07:03:17.355Z,7128.00
2019-04-26T07:04:17.273Z,6564.00
2019-04-26T07:05:17.193Z,6152.00
2019-04-26T07:06:17.118Z,5380.00
2019-04-26T07:07:17.043Z,5372.00
2019-04-26T07:08:17.096Z,5744.00
2019-04-26T07:09:16.881Z,6172.00
2019-04-26T07:10:16.809Z,6412.00
2019-04-26T07:11:16.732Z,6772.00
2019-04-26T07:12:16.656Z,7672.00
2019-04-26T07:13:16.583Z,9756.00
2019-04-26T07:14:16.494Z,8800.00
2019-04-26T07:15:27.975Z,8840.00
2019-04-26T07:16:22.030Z,9032.00
2019-04-26T07:17:16.269Z,8832.00
2019-04-26T07:18:16.194Z,8616.00
2019-04-26T07:19:16.112Z,9216.00
2019-04-26T07:20:16.032Z,8904.00
2019-04-26T07:21:16.428Z,8672.00
2019-04-26T07:22:15.883Z,9308.00
2019-04-26T07:23:15.807Z,9224.00
2019-04-26T07:24:15.733Z,9672.00
2019-04-26T07:25:17.795Z,9648.00
2019-04-26T07:26:15.570Z,13180.00
2019-04-26T07:27:15.502Z,11208.00
2019-04-26T07:28:15.442Z,13144.00
2019-04-26T07:29:15.351Z,12944.00
2019-04-26T07:30:15.305Z,13956.00
2019-04-26T07:31:15.195Z,12476.00
2019-04-26T07:32:15.112Z,16052.00
2019-04-26T07:33:15.034Z,16512.00
2019-04-26T07:34:14.959Z,17600.00
2019-04-26T07:35:14.884Z,15144.00
2019-04-26T07:36:14.810Z,18976.00
2019-04-26T07:37:14.734Z,18464.00
2019-04-26T07:38:14.660Z,13184.00
2019-04-26T07:39:20.033Z,13284.00
2019-04-26T07:40:14.515Z,11956.00
2019-04-26T07:41:14.434Z,11748.00
2019-04-26T07:42:14.360Z,11804.00
2019-04-26T07:43:14.284Z,12204.00
2019-04-26T07:44:14.214Z,11768.00
2019-04-26T07:45:14.136Z,11708.00
2019-04-26T07:46:14.062Z,11880.00
2019-04-26T07:47:15.124Z,11948.00
2019-04-26T07:48:14.623Z,11896.00
2019-04-26T07:49:13.835Z,11756.00
2019-04-26T07:50:14.184Z,11692.00
2019-04-26T07:51:13.714Z,11812.00
2019-04-26T07:52:13.614Z,11896.00
2019-04-26T07:53:13.537Z,11888.00
2019-04-26T07:54:13.462Z,11880.00
2019-04-26T07:55:13.386Z,11904.00
2019-04-26T07:56:13.575Z,11932.00
2019-04-26T07:57:13.250Z,12064.00
2019-04-26T07:58:13.197Z,12100.00
2019-04-26T07:59:13.087Z,12028.00
2019-04-26T08:00:13.079Z,11972.00
2019-04-26T08:01:14.044Z,11888.00
2019-04-26T08:02:13.415Z,11696.00
2019-04-26T08:03:13.036Z,11592.00
2019-04-26T08:04:12.713Z,11716.00
2019-04-26T08:05:13.529Z,12308.00
2019-04-26T08:06:13.681Z,12940.00
2019-04-26T08:07:13.243Z,13220.00
2019-04-26T08:08:12.836Z,13176.00
2019-04-26T08:09:25.983Z,12776.00
2019-04-26T08:10:12.346Z,12436.00
2019-04-26T08:11:12.914Z,12060.00
2019-04-26T08:12:12.257Z,11856.00
2019-04-26T08:13:13.015Z,11748.00
2019-04-26T08:14:12.579Z,11472.00
2019-04-26T08:15:11.900Z,11048.00
2019-04-26T08:16:12.393Z,10564.00
2019-04-26T08:17:12.515Z,10080.00
2019-04-26T08:18:11.663Z,9756.00
2019-04-26T08:19:12.574Z,9676.00
2019-04-26T08:20:12.604Z,9648.00
2019-04-26T08:21:15.210Z,9692.00
2019-04-26T08:22:17.982Z,9708.00
2019-04-26T08:23:36.014Z,9896.00
2019-04-26T08:24:11.213Z,10204.00
2019-04-26T08:25:11.139Z,10484.00
2019-04-26T08:26:11.168Z,10812.00
2019-04-26T08:27:18.840Z,11108.00
2019-04-26T08:28:11.995Z,11176.00
2019-04-26T08:29:10.840Z,10792.00
2019-04-26T08:30:14.479Z,10492.00
2019-04-26T08:31:10.873Z,10592.00
2019-04-26T08:32:11.373Z,10900.00
2019-04-26T08:33:12.864Z,11372.00
2019-04-26T08:34:10.467Z,12264.00
2019-04-26T08:35:16.096Z,13216.00
2019-04-26T08:36:10.566Z,13528.00
2019-04-26T08:37:10.482Z,13908.00
2019-04-26T08:38:15.927Z,14276.00
2019-04-26T08:39:10.889Z,14452.00
2019-04-26T08:40:10.015Z,14548.00
2019-04-26T08:41:09.998Z,14196.00
2019-04-26T08:42:18.240Z,13620.00
2019-04-26T08:43:10.869Z,12832.00
2019-04-26T08:44:09.805Z,11836.00
2019-04-26T08:45:12.486Z,11044.00
2019-04-26T08:46:12.593Z,11192.00
2019-04-26T08:47:14.094Z,14980.00
2019-04-26T08:48:10.368Z,15464.00
2019-04-26T08:49:09.673Z,15928.00
2019-04-26T08:50:12.246Z,14472.00
2019-04-26T08:51:09.397Z,15980.00
2019-04-26T08:52:14.713Z,17920.00
2019-04-26T08:53:09.029Z,19584.00
2019-04-26T08:54:08.966Z,20800.00
2019-04-26T08:55:08.892Z,21120.00
2019-04-26T08:56:11.623Z,22368.00
2019-04-26T08:57:08.742Z,21632.00
2019-04-26T08:58:08.668Z,19040.00
2019-04-26T08:59:08.592Z,16084.00
2019-04-26T09:00:08.517Z,14504.00
2019-04-26T09:01:08.455Z,13100.00
2019-04-26T09:02:08.397Z,11604.00
2019-04-26T09:03:11.568Z,9928.00
2019-04-26T09:04:08.230Z,8584.00
2019-04-26T09:05:08.168Z,7956.00
2019-04-26T09:06:08.093Z,7972.00
2019-04-26T09:07:08.018Z,8540.00
2019-04-26T09:08:07.955Z,8876.00
2019-04-26T09:09:07.895Z,9468.00
2019-04-26T09:10:11.316Z,9944.00
2019-04-26T09:11:07.732Z,10556.00
2019-04-26T09:12:08.289Z,11420.00
2019-04-26T09:13:07.594Z,12280.00
2019-04-26T09:14:07.519Z,12712.00
2019-04-26T09:15:07.444Z,13368.00
2019-04-26T09:16:07.423Z,14000.00
2019-04-26T09:17:07.296Z,14916.00
2019-04-26T09:18:07.244Z,15464.00
2019-04-26T09:19:07.158Z,15596.00
2019-04-26T09:20:07.988Z,15864.00
2019-04-26T09:21:07.006Z,16184.00
2019-04-26T09:22:12.735Z,15392.00
2019-04-26T09:23:06.872Z,17344.00
2019-04-26T09:24:08.279Z,19264.00
2019-04-26T09:25:06.720Z,18144.00
2019-04-26T09:26:08.606Z,18176.00
2019-04-26T09:27:06.570Z,19328.00
2019-04-26T09:28:06.497Z,18496.00
2019-04-26T09:29:06.433Z,17600.00
2019-04-26T09:30:06.519Z,16808.00
2019-04-26T09:31:06.287Z,16768.00
2019-04-26T09:32:06.207Z,18560.00
2019-04-26T09:33:06.186Z,17664.00
2019-04-26T09:34:06.385Z,20928.00
2019-04-26T09:35:05.997Z,17120.00
2019-04-26T09:36:05.923Z,16756.00
2019-04-26T09:37:05.846Z,16800.00
2019-04-26T09:38:05.784Z,16652.00
2019-04-26T09:39:08.232Z,15568.00
2019-04-26T09:40:10.545Z,14404.00
2019-04-26T09:41:05.560Z,13404.00
2019-04-26T09:42:09.484Z,12504.00
2019-04-26T09:43:05.422Z,12568.00
2019-04-26T09:44:05.359Z,13468.00
2019-04-26T09:45:05.272Z,14060.00
2019-04-26T09:46:05.209Z,14392.00
2019-04-26T09:47:05.134Z,14336.00
2019-04-26T09:48:05.059Z,14268.00
2019-04-26T09:49:06.928Z,14952.00
2019-04-26T09:50:04.969Z,15048.00
2019-04-26T09:51:04.848Z,15004.00
2019-04-26T09:52:04.776Z,14540.00
2019-04-26T09:53:04.698Z,13772.00
2019-04-26T09:54:04.623Z,12716.00
2019-04-26T09:55:04.548Z,12180.00
2019-04-26T09:56:04.479Z,11960.00
2019-04-26T09:57:04.410Z,11884.00
2019-04-26T09:58:04.349Z,11644.00
2019-04-26T09:59:05.597Z,11708.00
2019-04-26T10:00:04.199Z,12572.00
2019-04-26T10:01:06.095Z,14032.00
2019-04-26T10:02:04.049Z,14764.00
2019-04-26T10:03:08.051Z,14496.00
2019-04-26T10:04:03.887Z,15508.00
2019-04-26T10:05:03.828Z,15888.00
2019-04-26T10:06:03.750Z,15892.00
2019-04-26T10:07:04.203Z,15540.00
2019-04-26T10:08:03.599Z,15152.00
2019-04-26T10:09:03.525Z,14552.00
2019-04-26T10:10:03.455Z,13688.00
2019-04-26T10:11:05.803Z,12696.00
2019-04-26T10:12:03.299Z,11472.00
2019-04-26T10:13:03.236Z,10532.00
2019-04-26T10:14:03.174Z,9792.00
2019-04-26T10:15:03.086Z,9224.00
2019-04-26T10:16:04.260Z,9088.00
2019-04-26T10:17:02.937Z,9156.00
2019-04-26T10:18:02.862Z,8924.00
2019-04-26T10:19:02.787Z,8496.00
2019-04-26T10:20:02.717Z,8356.00
2019-04-26T10:21:02.637Z,8192.00
2019-04-26T10:22:02.575Z,8076.00
2019-04-26T10:23:02.502Z,7924.00
2019-04-26T10:24:02.425Z,7888.00
2019-04-26T10:25:06.829Z,7776.00
2019-04-26T10:26:02.275Z,7928.00
2019-04-26T10:27:03.313Z,8132.00
2019-04-26T10:28:02.128Z,8192.00
2019-04-26T10:29:02.061Z,8080.00
2019-04-26T10:30:07.858Z,7860.00
2019-04-26T10:31:01.927Z,7820.00
2019-04-26T10:32:01.840Z,7792.00
2019-04-26T10:33:02.185Z,7584.00
2019-04-26T10:34:01.689Z,7540.00
2019-04-26T10:35:01.615Z,7264.00
2019-04-26T10:36:01.539Z,7404.00
2019-04-26T10:37:05.789Z,7352.00
2019-04-26T10:38:01.390Z,7384.00
2019-04-26T10:39:01.330Z,7424.00
2019-04-26T10:40:01.253Z,7432.00
2019-04-26T10:41:01.177Z,7292.00
2019-04-26T10:42:01.109Z,7412.00
2019-04-26T10:43:01.032Z,7612.00
2019-04-26T10:44:00.954Z,7956.00
2019-04-26T10:45:00.879Z,8216.00
2019-04-26T10:46:00.821Z,10260.00
2019-04-26T10:47:04.477Z,15388.00
2019-04-26T10:48:00.665Z,19584.00
2019-04-26T10:49:08.484Z,21312.00
2019-04-26T10:50:00.516Z,23776.00
2019-04-26T10:51:03.226Z,26272.00
2019-04-26T10:52:00.379Z,28864.00
2019-04-26T10:53:00.318Z,33248.00
2019-04-26T10:54:01.556Z,37120.00
2019-04-26T10:55:00.171Z,39264.00
2019-04-26T10:56:00.090Z,40192.00
2019-04-26T10:57:00.017Z,29792.00
2019-04-26T10:57:59.955Z,17088.00
2019-04-26T10:58:59.880Z,16536.00
2019-04-26T10:59:59.804Z,13304.00
2019-04-26T11:00:59.741Z,15796.00
2019-04-26T11:01:59.671Z,39680.00
2019-04-26T11:03:00.099Z,74048.00
2019-04-26T11:03:59.531Z,78752.00
2019-04-26T11:04:59.468Z,79616.00
2019-04-26T11:05:59.393Z,77536.00
2019-04-26T11:07:02.039Z,77600.00
2019-04-26T11:07:59.256Z,78912.00
2019-04-26T11:08:59.193Z,81280.00
2019-04-26T11:09:59.120Z,79584.00
2019-04-26T11:10:59.059Z,75008.00
2019-04-26T11:11:58.981Z,70560.00
2019-04-26T11:12:58.917Z,73632.00
2019-04-26T11:13:58.858Z,77120.00
2019-04-26T11:14:58.781Z,78784.00
2019-04-26T11:16:02.284Z,79552.00
2019-04-26T11:16:58.656Z,79968.00
2019-04-26T11:17:58.581Z,80288.00
2019-04-26T11:19:01.248Z,79072.00
2019-04-26T11:19:58.456Z,80960.00
2019-04-26T11:20:58.383Z,73696.00
2019-04-26T11:21:58.319Z,75904.00
2019-04-26T11:22:58.257Z,70848.00
2019-04-26T11:23:58.195Z,62336.00
2019-04-26T11:24:58.131Z,56192.00
2019-04-26T11:26:01.528Z,66528.00
2019-04-26T11:26:57.994Z,66016.00
2019-04-26T11:27:57.933Z,62784.00
2019-04-26T11:28:57.869Z,63296.00
2019-04-26T11:29:59.284Z,61696.00
2019-04-26T11:30:57.781Z,60512.00
2019-04-26T11:31:58.459Z,55872.00
2019-04-26T11:32:57.607Z,53632.00
2019-04-26T11:34:05.033Z,51744.00
2019-04-26T11:34:58.652Z,54752.00
2019-04-26T11:35:57.416Z,47840.00
2019-04-26T11:36:57.347Z,54272.00
2019-04-26T11:37:57.295Z,50944.00
2019-04-26T11:38:57.242Z,60480.00
2019-04-26T11:39:57.160Z,40960.00
2019-04-26T11:41:06.019Z,44864.00
2019-04-26T11:41:57.021Z,51104.00
2019-04-26T11:42:56.962Z,31616.00
2019-04-26T11:43:56.895Z,37792.00
2019-04-26T11:45:05.908Z,45856.00
2019-04-26T11:46:04.223Z,44608.00
2019-04-26T11:46:59.327Z,50720.00
2019-04-26T11:47:56.737Z,51360.00
2019-04-26T11:48:59.201Z,38368.00
2019-04-26T11:49:56.533Z,24928.00
2019-04-26T11:50:56.457Z,19200.00
2019-04-26T11:51:58.690Z,27168.00
2019-04-26T11:52:56.310Z,26688.00
2019-04-26T11:53:56.246Z,29600.00
2019-04-26T11:54:56.251Z,27360.00
2019-04-26T11:55:56.111Z,38880.00
2019-04-26T11:56:56.048Z,19296.00
2019-04-26T11:57:55.987Z,25792.00
2019-04-26T11:58:56.777Z,26016.00
2019-04-26T11:59:55.849Z,22528.00
2019-04-26T12:00:55.789Z,23200.00
2019-04-26T12:01:55.711Z,24512.00
2019-04-26T12:02:55.650Z,25056.00
2019-04-26T12:03:59.253Z,18912.00
2019-04-26T12:04:55.511Z,17056.00
2019-04-26T12:05:55.448Z,14664.00
2019-04-26T12:06:55.373Z,14888.00
2019-04-26T12:07:55.310Z,14976.00
2019-04-26T12:08:55.248Z,14212.00
2019-04-26T12:09:55.176Z,14312.00
2019-04-26T12:10:55.112Z,17120.00
2019-04-26T12:12:04.580Z,15640.00
2019-04-26T12:13:05.193Z,19648.00
2019-04-26T12:13:55.369Z,17536.00
2019-04-26T12:14:54.836Z,18528.00
2019-04-26T12:15:54.777Z,18496.00
2019-04-26T12:16:59.091Z,27904.00
2019-04-26T12:17:58.632Z,19264.00
2019-04-26T12:18:54.563Z,18656.00
2019-04-26T12:19:54.487Z,23200.00
2019-04-26T12:20:57.186Z,17600.00